Venus Spirit — A8YD8 — position and weather

sailwx.info

Track history (hours):
 
Tides and Currents Weather Stations Pressure Air Temp Water Temp Dewpoint Dewpoint Depression Visibility Wind Speed Wind Dir Waves Ship Positions

Venus Spirit

Last reported at 2017-Oct-21 14:33 UTC. Time now 2017-Nov-23 01:50 UTC.
Position N 33°39' W 121°49'.
Warning: this ship's position is 32 days out of date.

Length 183 m; draft 8.1 m.

Type: Cargo ship. MMSI: 636015032.

Date/timePositionNaut miles runAvg speedWind from/ knotsBaromVisibWave heightAir tempDewpointWater temp
2017-Oct-21 14:33N 33°39' W 121°49'115.1
2017-Oct-21 14:28N 33°39' W 121°48'1414.4
2017-Oct-21 13:29N 33°40' W 121°30'714.7
2017-Oct-21 13:00N 33°39' W 121°22'714.5
2017-Oct-21 12:30N 33°38' W 121°13'714.6
2017-Oct-21 12:00N 33°38' W 121°05'714.9
2017-Oct-21 11:30N 33°38' W 120°56'714.7
2017-Oct-21 11:00N 33°38' W 120°47'714.3
2017-Oct-21 10:30N 33°38' W 120°38'815.1
2017-Oct-21 10:00N 33°38' W 120°29'815.2
2017-Oct-21 09:30N 33°38' W 120°20'816.2
2017-Oct-21 09:00N 33°38' W 120°10'816.5
2017-Oct-21 08:30N 33°38' W 120°00'916.9
2017-Oct-21 08:00N 33°38' W 119°50'918.3
2017-Oct-21 07:30N 33°38' W 119°39'917.8
2017-Oct-21 07:00N 33°38' W 119°29'1017.8
2017-Oct-21 06:28N 33°38' W 119°17'816.0
2017-Oct-21 05:58N 33°38' W 119°08'511.4
2017-Oct-21 05:30N 33°38' W 119°01'611.4
2017-Oct-21 05:00N 33°38' W 118°54'611.3
2017-Oct-21 04:30N 33°38' W 118°48'611.4
2017-Oct-21 04:00N 33°38' W 118°41'611.5
2017-Oct-21 03:30N 33°38' W 118°34'611.2
2017-Oct-21 02:57N 33°38' W 118°26'511.0
2017-Oct-21 02:30N 33°38' W 118°20'4 8.8
2017-Oct-21 02:00N 33°40' W 118°15'4 7.6
2017-Oct-21 01:30N 33°44' W 118°16'3 5.0
2017-Oct-21 01:00N 33°46' W 118°15'0 0.0
2017-Oct-21 00:30N 33°46' W 118°15'0 0.0
2017-Oct-21 00:00N 33°46' W 118°15'0 0.0
2017-Oct-20 23:30N 33°46' W 118°15'0 0.0
2017-Oct-20 23:00N 33°46' W 118°15'0 0.0
2017-Oct-20 22:30N 33°46' W 118°15'0 0.0
2017-Oct-20 21:54N 33°46' W 118°15'0 0.0
2017-Oct-20 21:12N 33°46' W 118°15'0 0.0
2017-Oct-20 20:54N 33°46' W 118°15'0 0.0
2017-Oct-20 20:24N 33°46' W 118°15'0 0.0
2017-Oct-20 20:00N 33°46' W 118°15'0 0.0
2017-Oct-20 19:30N 33°46' W 118°15'0 0.0
2017-Oct-20 19:00N 33°46' W 118°15'0 0.0
2017-Oct-20 18:30N 33°46' W 118°15'0 0.0
2017-Oct-20 18:00N 33°46' W 118°15'0 0.0
2017-Oct-20 17:24N 33°46' W 118°15'0 0.0
2017-Oct-20 17:00N 33°46' W 118°15'0 0.0
2017-Oct-20 16:30N 33°46' W 118°15'0 0.0
2017-Oct-20 16:00N 33°46' W 118°15'0 0.0
2017-Oct-20 15:24N 33°46' W 118°15'0 0.0
2017-Oct-20 15:00N 33°46' W 118°15'0 0.0
2017-Oct-20 14:30N 33°46' W 118°15'0 0.0
2017-Oct-20 13:21N 33°46' W 118°15'0 0.0
2017-Oct-20 12:54N 33°46' W 118°15'0 0.0
2017-Oct-20 12:21N 33°46' W 118°15'0 0.0
2017-Oct-20 11:51N 33°46' W 118°15'0 0.0
2017-Oct-20 11:21N 33°46' W 118°15'0 0.0
2017-Oct-20 10:57N 33°46' W 118°15'0 0.0
2017-Oct-20 10:27N 33°46' W 118°15'0 0.0
2017-Oct-20 09:48N 33°46' W 118°15'0 0.0
2017-Oct-20 09:18N 33°46' W 118°15'0 0.0
2017-Oct-20 09:00N 33°46' W 118°15'0 0.0
2017-Oct-20 08:15N 33°46' W 118°15'0 0.0
2017-Oct-20 07:54N 33°46' W 118°15'0 0.0
2017-Oct-20 07:30N 33°46' W 118°15'0 0.0
2017-Oct-20 06:57N 33°46' W 118°15'0 0.0
2017-Oct-20 06:30N 33°46' W 118°15'0 0.0
2017-Oct-20 06:00N 33°46' W 118°15'0 0.0
2017-Oct-20 05:30N 33°46' W 118°15'0 0.0
2017-Oct-20 05:00N 33°46' W 118°15'0 0.0
2017-Oct-20 04:30N 33°46' W 118°15'0 0.0
2017-Oct-20 03:45N 33°46' W 118°15'0 0.0
2017-Oct-20 03:30N 33°46' W 118°15'0 0.0
2017-Oct-20 02:57N 33°46' W 118°15'0 0.0
2017-Oct-20 02:21N 33°46' W 118°15'0 0.0
2017-Oct-20 02:00N 33°46' W 118°15'1 2.3
2017-Oct-20 01:30N 33°45' W 118°16'3 5.4
2017-Oct-20 01:00N 33°43' W 118°15'3 5.9
2017-Oct-20 00:31N 33°40' W 118°15'3 5.0
2017-Oct-20 00:00N 33°37' W 118°17'2 4.6
2017-Oct-19 23:30N 33°36' W 118°19'3 5.9
2017-Oct-19 23:00N 33°36' W 118°23'3 6.0
2017-Oct-19 22:31N 33°36' W 118°26'3 6.1
2017-Oct-19 21:59N 33°37' W 118°30'4 7.3
2017-Oct-19 21:30N 33°37' W 118°34'3 6.4
2017-Oct-19 21:00N 33°37' W 118°38'3 6.7
2017-Oct-19 20:30N 33°37' W 118°42'3 6.6
2017-Oct-19 20:00N 33°37' W 118°46'5 9.8
2017-Oct-19 19:31N 33°37' W 118°52'5 9.3
2017-Oct-19 19:00N 33°37' W 118°57'5 9.8
2017-Oct-19 18:30N 33°37' W 119°03'5 9.8
2017-Oct-19 18:01N 33°37' W 119°09'510.0
2017-Oct-19 17:30N 33°40' W 119°13'611.2
2017-Oct-19 17:00N 33°45' W 119°18'611.1
2017-Oct-19 16:30N 33°49' W 119°22'5 9.4
2017-Oct-19 15:58N 33°51' W 119°27'510.8
2017-Oct-19 15:30N 33°50' W 119°33'611.1
2017-Oct-19 15:00N 33°49' W 119°40'510.8
2017-Oct-19 14:30N 33°47' W 119°46'611.3
2017-Oct-19 14:00N 33°46' W 119°53'510.3
2017-Oct-19 13:29N 33°45' W 119°59'510.6
2017-Oct-19 13:00N 33°43' W 120°05'510.9
2017-Oct-19 12:31N 33°42' W 120°11'510.7
2017-Oct-19 12:01N 33°41' W 120°17'610.5
2017-Oct-19 11:29N 33°39' W 120°24'511.1
2017-Oct-19 11:00N 33°38' W 120°30'610.8
2017-Oct-19 10:26N 33°38' W 120°37'511.2
2017-Oct-19 10:00N 33°38' W 120°43'611.6
2017-Oct-19 09:31N 33°38' W 120°50'4 8.0
2017-Oct-19 08:57N 33°38' W 120°55'611.8
2017-Oct-19 08:28N 33°38' W 121°02'612.0
2017-Oct-19 08:00N 33°38' W 121°09'611.7
2017-Oct-19 07:30N 33°38' W 121°16'611.6
2017-Oct-19 07:00N 33°39' W 121°23'611.7
2017-Oct-19 06:31N 33°39' W 121°30'611.8
2017-Oct-19 06:01N 33°39' W 121°37'711.7
2017-Oct-19 05:26N 33°39' W 121°45'511.7
2017-Oct-19 04:59N 33°39' W 121°51'611.8
2017-Oct-19 04:30N 33°39' W 121°58'611.9
2017-Oct-19 03:59N 33°39' W 122°05'611.6
2017-Oct-19 03:31N 33°39' W 122°12'611.8
2017-Oct-19 03:01N 33°39' W 122°19'611.9
2017-Oct-19 02:30N 33°40' W 122°26'711.8
2017-Oct-19 01:56N 33°40' W 122°35'511.9
2017-Oct-19 01:31N 33°40' W 122°41'611.9
2017-Oct-19 01:00N 33°40' W 122°48'611.9
2017-Oct-19 00:31N 33°40' W 122°55'611.7
2017-Oct-19 00:01N 33°40' W 123°02'611.6
2017-Oct-18 23:31N 33°40' W 123°09'611.7
2017-Oct-18 23:01N 33°40' W 123°16'815.0
2017-Oct-18 22:30N 33°41' W 123°25'815.2
2017-Oct-18 22:01N 33°42' W 123°34'815.0
2017-Oct-18 21:30N 33°42' W 123°43'613.1
2017-Oct-18 21:01N 33°40' W 123°51'815.6
2017-Oct-18 20:30N 33°41' W 124°00'915.3
2017-Oct-18 19:55N 33°41' W 124°11'615.5
2017-Oct-18 19:30N 33°41' W 124°19'815.2
2017-Oct-18 19:00N 33°41' W 124°28'714.7
2017-Oct-18 18:29N 33°42' W 124°37'715.2
2017-Oct-18 18:00N 33°46' W 124°45'914.6
2017-Oct-18 17:25N 33°49' W 124°54'3514.8
2017-Oct-18 15:04N 34°04' W 125°32'314.8
2017-Oct-18 14:51N 34°05' W 125°36'1514.8
2017-Oct-18 13:48N 34°12' W 125°52'1714.9
2017-Oct-18 12:41N 34°19' W 126°10'415.2
2017-Oct-18 12:27N 34°21' W 126°14'715.3
2017-Oct-18 12:01N 34°24' W 126°21'815.2
2017-Oct-18 11:31N 34°28' W 126°30'1415.3
2017-Oct-18 10:37N 34°33' W 126°45'215.2
2017-Oct-18 10:30N 34°34' W 126°47'1115.2
2017-Oct-18 09:47N 34°39' W 126°59'415.0
2017-Oct-18 09:30N 34°40' W 127°04'2115.0
2017-Oct-18 08:07N 34°46' W 127°28'8 1.2
2017-Oct-18 01:42N 34°53' W 127°33'0 0.6
2017-Oct-18 01:26N 34°53' W 127°33'0 0.5
2017-Oct-18 01:01N 34°53' W 127°33'0 0.5
2017-Oct-18 00:29N 34°53' W 127°33'0 0.6
2017-Oct-17 23:57N 34°54' W 127°32'1 0.6
2017-Oct-17 22:42N 34°54' W 127°32'1 0.6
2017-Oct-17 20:18N 34°56' W 127°31'0 0.9
2017-Oct-17 19:47N 34°56' W 127°31'0 0.9
2017-Oct-17 19:28N 34°56' W 127°31'1 0.9
2017-Oct-17 18:45N 34°57' W 127°30'0 1.0
2017-Oct-17 18:30N 34°57' W 127°30'1 1.1
2017-Oct-17 18:00N 34°58' W 127°30'1 1.1
2017-Oct-17 17:30N 34°58' W 127°30'1 1.0
2017-Oct-17 16:45N 34°59' W 127°30'0 0.8
2017-Oct-17 16:25N 34°59' W 127°30'1 0.8
2017-Oct-17 15:38N 34°60' W 127°30'0 0.5
2017-Oct-17 15:25N 34°60' W 127°30'0 0.4
2017-Oct-17 14:54N 35°00' W 127°30'0 0.5
2017-Oct-17 14:28N 35°00' W 127°30'0 0.6
2017-Oct-17 14:00N 35°01' W 127°30'1 0.7
2017-Oct-17 12:47N 35°01' W 127°30'3 1.0
2017-Oct-17 10:06N 35°04' W 127°29'3 1.0
2017-Oct-17 07:01N 35°07' W 127°29'0 1.0
2017-Oct-17 07:00N 35°07' W 127°29'6614.9
2017-Oct-17 02:36N 35°40' W 128°39'1415.5
2017-Oct-17 01:43N 35°47' W 128°54'  
Track history (hours):
 
Tides and Currents Weather Stations Pressure Air Temp Water Temp Dewpoint Dewpoint Depression Visibility Wind Speed Wind Dir Waves Ship Positions

Venus Spirit

Last reported at 2017-Oct-21 14:33 UTC. Time now 2017-Nov-23 01:50 UTC.
Position N 33°39' W 121°49'.
Warning: this ship's position is 32 days out of date.

Length 183 m; draft 8.1 m.

Type: Cargo ship. MMSI: 636015032.

Date/timePositionNaut miles runAvg speedWind from/ knotsBaromVisibWave heightAir tempDewpointWater temp
2017-Oct-21 14:33N 33°39' W 121°49'115.1
2017-Oct-21 14:28N 33°39' W 121°48'1414.4
2017-Oct-21 13:29N 33°40' W 121°30'714.7
2017-Oct-21 13:00N 33°39' W 121°22'714.5
2017-Oct-21 12:30N 33°38' W 121°13'714.6
2017-Oct-21 12:00N 33°38' W 121°05'714.9
2017-Oct-21 11:30N 33°38' W 120°56'714.7
2017-Oct-21 11:00N 33°38' W 120°47'714.3
2017-Oct-21 10:30N 33°38' W 120°38'815.1
2017-Oct-21 10:00N 33°38' W 120°29'815.2
2017-Oct-21 09:30N 33°38' W 120°20'816.2
2017-Oct-21 09:00N 33°38' W 120°10'816.5
2017-Oct-21 08:30N 33°38' W 120°00'916.9
2017-Oct-21 08:00N 33°38' W 119°50'918.3
2017-Oct-21 07:30N 33°38' W 119°39'917.8
2017-Oct-21 07:00N 33°38' W 119°29'1017.8
2017-Oct-21 06:28N 33°38' W 119°17'816.0
2017-Oct-21 05:58N 33°38' W 119°08'511.4
2017-Oct-21 05:30N 33°38' W 119°01'611.4
2017-Oct-21 05:00N 33°38' W 118°54'611.3
2017-Oct-21 04:30N 33°38' W 118°48'611.4
2017-Oct-21 04:00N 33°38' W 118°41'611.5
2017-Oct-21 03:30N 33°38' W 118°34'611.2
2017-Oct-21 02:57N 33°38' W 118°26'511.0
2017-Oct-21 02:30N 33°38' W 118°20'4 8.8
2017-Oct-21 02:00N 33°40' W 118°15'4 7.6
2017-Oct-21 01:30N 33°44' W 118°16'3 5.0
2017-Oct-21 01:00N 33°46' W 118°15'0 0.0
2017-Oct-21 00:30N 33°46' W 118°15'0 0.0
2017-Oct-21 00:00N 33°46' W 118°15'0 0.0
2017-Oct-20 23:30N 33°46' W 118°15'0 0.0
2017-Oct-20 23:00N 33°46' W 118°15'0 0.0
2017-Oct-20 22:30N 33°46' W 118°15'0 0.0
2017-Oct-20 21:54N 33°46' W 118°15'0 0.0
2017-Oct-20 21:12N 33°46' W 118°15'0 0.0
2017-Oct-20 20:54N 33°46' W 118°15'0 0.0
2017-Oct-20 20:24N 33°46' W 118°15'0 0.0
2017-Oct-20 20:00N 33°46' W 118°15'0 0.0
2017-Oct-20 19:30N 33°46' W 118°15'0 0.0
2017-Oct-20 19:00N 33°46' W 118°15'0 0.0
2017-Oct-20 18:30N 33°46' W 118°15'0 0.0
2017-Oct-20 18:00N 33°46' W 118°15'0 0.0
2017-Oct-20 17:24N 33°46' W 118°15'0 0.0
2017-Oct-20 17:00N 33°46' W 118°15'0 0.0
2017-Oct-20 16:30N 33°46' W 118°15'0 0.0
2017-Oct-20 16:00N 33°46' W 118°15'0 0.0
2017-Oct-20 15:24N 33°46' W 118°15'0 0.0
2017-Oct-20 15:00N 33°46' W 118°15'0 0.0
2017-Oct-20 14:30N 33°46' W 118°15'0 0.0
2017-Oct-20 13:21N 33°46' W 118°15'0 0.0
2017-Oct-20 12:54N 33°46' W 118°15'0 0.0
2017-Oct-20 12:21N 33°46' W 118°15'0 0.0
2017-Oct-20 11:51N 33°46' W 118°15'0 0.0
2017-Oct-20 11:21N 33°46' W 118°15'0 0.0
2017-Oct-20 10:57N 33°46' W 118°15'0 0.0
2017-Oct-20 10:27N 33°46' W 118°15'0 0.0
2017-Oct-20 09:48N 33°46' W 118°15'0 0.0
2017-Oct-20 09:18N 33°46' W 118°15'0 0.0
2017-Oct-20 09:00N 33°46' W 118°15'0 0.0
2017-Oct-20 08:15N 33°46' W 118°15'0 0.0
2017-Oct-20 07:54N 33°46' W 118°15'0 0.0
2017-Oct-20 07:30N 33°46' W 118°15'0 0.0
2017-Oct-20 06:57N 33°46' W 118°15'0 0.0
2017-Oct-20 06:30N 33°46' W 118°15'0 0.0
2017-Oct-20 06:00N 33°46' W 118°15'0 0.0
2017-Oct-20 05:30N 33°46' W 118°15'0 0.0
2017-Oct-20 05:00N 33°46' W 118°15'0 0.0
2017-Oct-20 04:30N 33°46' W 118°15'0 0.0
2017-Oct-20 03:45N 33°46' W 118°15'0 0.0
2017-Oct-20 03:30N 33°46' W 118°15'0 0.0
2017-Oct-20 02:57N 33°46' W 118°15'0 0.0
2017-Oct-20 02:21N 33°46' W 118°15'0 0.0
2017-Oct-20 02:00N 33°46' W 118°15'1 2.3
2017-Oct-20 01:30N 33°45' W 118°16'3 5.4
2017-Oct-20 01:00N 33°43' W 118°15'3 5.9
2017-Oct-20 00:31N 33°40' W 118°15'3 5.0
2017-Oct-20 00:00N 33°37' W 118°17'2 4.6
2017-Oct-19 23:30N 33°36' W 118°19'3 5.9
2017-Oct-19 23:00N 33°36' W 118°23'3 6.0
2017-Oct-19 22:31N 33°36' W 118°26'3 6.1
2017-Oct-19 21:59N 33°37' W 118°30'4 7.3
2017-Oct-19 21:30N 33°37' W 118°34'3 6.4
2017-Oct-19 21:00N 33°37' W 118°38'3 6.7
2017-Oct-19 20:30N 33°37' W 118°42'3 6.6
2017-Oct-19 20:00N 33°37' W 118°46'5 9.8
2017-Oct-19 19:31N 33°37' W 118°52'5 9.3
2017-Oct-19 19:00N 33°37' W 118°57'5 9.8
2017-Oct-19 18:30N 33°37' W 119°03'5 9.8
2017-Oct-19 18:01N 33°37' W 119°09'510.0
2017-Oct-19 17:30N 33°40' W 119°13'611.2
2017-Oct-19 17:00N 33°45' W 119°18'611.1
2017-Oct-19 16:30N 33°49' W 119°22'5 9.4
2017-Oct-19 15:58N 33°51' W 119°27'510.8
2017-Oct-19 15:30N 33°50' W 119°33'611.1
2017-Oct-19 15:00N 33°49' W 119°40'510.8
2017-Oct-19 14:30N 33°47' W 119°46'611.3
2017-Oct-19 14:00N 33°46' W 119°53'510.3
2017-Oct-19 13:29N 33°45' W 119°59'510.6
2017-Oct-19 13:00N 33°43' W 120°05'510.9
2017-Oct-19 12:31N 33°42' W 120°11'510.7
2017-Oct-19 12:01N 33°41' W 120°17'610.5
2017-Oct-19 11:29N 33°39' W 120°24'511.1
2017-Oct-19 11:00N 33°38' W 120°30'610.8
2017-Oct-19 10:26N 33°38' W 120°37'511.2
2017-Oct-19 10:00N 33°38' W 120°43'611.6
2017-Oct-19 09:31N 33°38' W 120°50'4 8.0
2017-Oct-19 08:57N 33°38' W 120°55'611.8
2017-Oct-19 08:28N 33°38' W 121°02'612.0
2017-Oct-19 08:00N 33°38' W 121°09'611.7
2017-Oct-19 07:30N 33°38' W 121°16'611.6
2017-Oct-19 07:00N 33°39' W 121°23'611.7
2017-Oct-19 06:31N 33°39' W 121°30'611.8
2017-Oct-19 06:01N 33°39' W 121°37'711.7
2017-Oct-19 05:26N 33°39' W 121°45'511.7
2017-Oct-19 04:59N 33°39' W 121°51'611.8
2017-Oct-19 04:30N 33°39' W 121°58'611.9
2017-Oct-19 03:59N 33°39' W 122°05'611.6
2017-Oct-19 03:31N 33°39' W 122°12'611.8
2017-Oct-19 03:01N 33°39' W 122°19'611.9
2017-Oct-19 02:30N 33°40' W 122°26'711.8
2017-Oct-19 01:56N 33°40' W 122°35'511.9
2017-Oct-19 01:31N 33°40' W 122°41'611.9
2017-Oct-19 01:00N 33°40' W 122°48'611.9
2017-Oct-19 00:31N 33°40' W 122°55'611.7
2017-Oct-19 00:01N 33°40' W 123°02'611.6
2017-Oct-18 23:31N 33°40' W 123°09'611.7
2017-Oct-18 23:01N 33°40' W 123°16'815.0
2017-Oct-18 22:30N 33°41' W 123°25'815.2
2017-Oct-18 22:01N 33°42' W 123°34'815.0
2017-Oct-18 21:30N 33°42' W 123°43'613.1
2017-Oct-18 21:01N 33°40' W 123°51'815.6
2017-Oct-18 20:30N 33°41' W 124°00'915.3
2017-Oct-18 19:55N 33°41' W 124°11'615.5
2017-Oct-18 19:30N 33°41' W 124°19'815.2
2017-Oct-18 19:00N 33°41' W 124°28'714.7
2017-Oct-18 18:29N 33°42' W 124°37'715.2
2017-Oct-18 18:00N 33°46' W 124°45'914.6
2017-Oct-18 17:25N 33°49' W 124°54'3514.8
2017-Oct-18 15:04N 34°04' W 125°32'314.8
2017-Oct-18 14:51N 34°05' W 125°36'1514.8
2017-Oct-18 13:48N 34°12' W 125°52'1714.9
2017-Oct-18 12:41N 34°19' W 126°10'415.2
2017-Oct-18 12:27N 34°21' W 126°14'715.3
2017-Oct-18 12:01N 34°24' W 126°21'815.2
2017-Oct-18 11:31N 34°28' W 126°30'1415.3
2017-Oct-18 10:37N 34°33' W 126°45'215.2
2017-Oct-18 10:30N 34°34' W 126°47'1115.2
2017-Oct-18 09:47N 34°39' W 126°59'415.0
2017-Oct-18 09:30N 34°40' W 127°04'2115.0
2017-Oct-18 08:07N 34°46' W 127°28'8 1.2
2017-Oct-18 01:42N 34°53' W 127°33'0 0.6
2017-Oct-18 01:26N 34°53' W 127°33'0 0.5
2017-Oct-18 01:01N 34°53' W 127°33'0 0.5
2017-Oct-18 00:29N 34°53' W 127°33'0 0.6
2017-Oct-17 23:57N 34°54' W 127°32'1 0.6
2017-Oct-17 22:42N 34°54' W 127°32'1 0.6
2017-Oct-17 20:18N 34°56' W 127°31'0 0.9
2017-Oct-17 19:47N 34°56' W 127°31'0 0.9
2017-Oct-17 19:28N 34°56' W 127°31'1 0.9
2017-Oct-17 18:45N 34°57' W 127°30'0 1.0
2017-Oct-17 18:30N 34°57' W 127°30'1 1.1
2017-Oct-17 18:00N 34°58' W 127°30'1 1.1
2017-Oct-17 17:30N 34°58' W 127°30'1 1.0
2017-Oct-17 16:45N 34°59' W 127°30'0 0.8
2017-Oct-17 16:25N 34°59' W 127°30'1 0.8
2017-Oct-17 15:38N 34°60' W 127°30'0 0.5
2017-Oct-17 15:25N 34°60' W 127°30'0 0.4
2017-Oct-17 14:54N 35°00' W 127°30'0 0.5
2017-Oct-17 14:28N 35°00' W 127°30'0 0.6
2017-Oct-17 14:00N 35°01' W 127°30'1 0.7
2017-Oct-17 12:47N 35°01' W 127°30'3 1.0
2017-Oct-17 10:06N 35°04' W 127°29'3 1.0
2017-Oct-17 07:01N 35°07' W 127°29'0 1.0
2017-Oct-17 07:00N 35°07' W 127°29'6614.9
2017-Oct-17 02:36N 35°40' W 128°39'1415.5
2017-Oct-17 01:43N 35°47' W 128°54'  

Dump ship's entire track history